Accueil
METAR-TAF:

METAR-TAF

Aéroports :

Montichiari

Brescia, Italie

latitude: 45-24-02N, longitude: 010-18-59E, altitude: 104 m

Observation

Le bulletin a été fait il y a 24 minutes, à 03:20 UTC
Vent 3 kt de nord-est
Température 12°C
Humidité 67%
Pression 1027 hPa
Visibilité 10 km ou plus

METAR: LIPO 240320Z AUTO 05003KT 9999 SCT041/// BKN065/// 12/06 Q1027

Heure: 05:44 (03:44 UTC)

Prévision

Le bulletin a été fait il y a 4 heures et 44 minutes, à 23:00 UTC
Prévision valable du 24 à 00 UTC au 24 à 24 UTC
Vent 8 kt de est
Visibilité: 6000 m
Temporairement
du 24 à 00 UTC au 24 à 06 UTC
Visibilité: 3000 m
brume

TAF: LIPO 232300Z 2400/2424 08008KT 6000 NSC TEMPO 2400/2406 3000 BR

Observations et prévisions météorologiques de plus de 4000 aéroports (messages METAR et TAF).

Les stations disponibles sont représentées par des disques jaunes et rouges sur la carte.

Passer la souris dessus pour voir le nom de la station.

Cliquer dessus pour voir les observations et prévisions météorologiques.

Pour changer de carte: cliquez sur les boutons verts avec une croix noire pour zoomer, sur le bouton vert avec un tiret pour effectuer un zoom arrière, ou sur les flèches vertes pour les cartes adjacentes.


METAR-TAF: